sensor_id;sensor_type;location;lat;lon;timestamp;temperature;humidity
13470;DHT22;6807;48.682;9.032;2023-09-19T00:00:12;15.10;99.90
13470;DHT22;6807;48.682;9.032;2023-09-19T00:02:44;15.10;99.90
13470;DHT22;6807;48.682;9.032;2023-09-19T00:05:26;14.60;99.90
13470;DHT22;6807;48.682;9.032;2023-09-19T00:08:06;15.00;99.90
13470;DHT22;6807;48.682;9.032;2023-09-19T00:10:36;15.10;99.90
13470;DHT22;6807;48.682;9.032;2023-09-19T00:13:12;15.00;99.90
13470;DHT22;6807;48.682;9.032;2023-09-19T00:15:43;15.00;99.90
13470;DHT22;6807;48.682;9.032;2023-09-19T00:18:20;15.00;99.90
13470;DHT22;6807;48.682;9.032;2023-09-19T00:24:15;15.40;99.90
13470;DHT22;6807;48.682;9.032;2023-09-19T00:29:36;15.00;99.90
13470;DHT22;6807;48.682;9.032;2023-09-19T00:32:12;15.00;99.90
13470;DHT22;6807;48.682;9.032;2023-09-19T00:34:55;14.90;99.90
13470;DHT22;6807;48.682;9.032;2023-09-19T00:38:01;14.90;99.90
13470;DHT22;6807;48.682;9.032;2023-09-19T00:40:50;14.90;99.90
13470;DHT22;6807;48.682;9.032;2023-09-19T00:43:41;14.90;99.90
13470;DHT22;6807;48.682;9.032;2023-09-19T00:46:17;14.90;99.90
13470;DHT22;6807;48.682;9.032;2023-09-19T00:49:12;14.90;99.90
13470;DHT22;6807;48.682;9.032;2023-09-19T00:52:20;14.90;99.90
13470;DHT22;6807;48.682;9.032;2023-09-19T00:55:38;14.90;99.90
13470;DHT22;6807;48.682;9.032;2023-09-19T01:02:10;14.80;99.90
13470;DHT22;6807;48.682;9.032;2023-09-19T01:11:53;14.80;27.20
13470;DHT22;6807;48.682;9.032;2023-09-19T01:14:55;14.90;1.00
13470;DHT22;6807;48.682;9.032;2023-09-19T01:18:08;14.90;1.00
13470;DHT22;6807;48.682;9.032;2023-09-19T01:21:00;14.90;1.00
13470;DHT22;6807;48.682;9.032;2023-09-19T01:30:10;15.00;1.00
13470;DHT22;6807;48.682;9.032;2023-09-19T01:35:38;15.00;1.00
13470;DHT22;6807;48.682;9.032;2023-09-19T01:38:24;15.00;1.00
13470;DHT22;6807;48.682;9.032;2023-09-19T01:41:25;15.10;1.00
13470;DHT22;6807;48.682;9.032;2023-09-19T01:44:12;15.10;1.00
13470;DHT22;6807;48.682;9.032;2023-09-19T01:47:01;15.10;1.00
13470;DHT22;6807;48.682;9.032;2023-09-19T01:49:41;14.60;1.00
13470;DHT22;6807;48.682;9.032;2023-09-19T01:52:14;15.10;1.00
13470;DHT22;6807;48.682;9.032;2023-09-19T01:55:19;15.40;1.00
13470;DHT22;6807;48.682;9.032;2023-09-19T01:58:46;15.00;1.00
13470;DHT22;6807;48.682;9.032;2023-09-19T02:01:22;15.00;17.90
13470;DHT22;6807;48.682;9.032;2023-09-19T02:04:07;16.90;10.50
13470;DHT22;6807;48.682;9.032;2023-09-19T02:06:39;16.40;15.10
13470;DHT22;6807;48.682;9.032;2023-09-19T02:09:21;14.80;63.40
13470;DHT22;6807;48.682;9.032;2023-09-19T02:12:08;14.70;99.90
13470;DHT22;6807;48.682;9.032;2023-09-19T02:19:53;14.60;99.90
13470;DHT22;6807;48.682;9.032;2023-09-19T02:22:38;14.60;99.90
13470;DHT22;6807;48.682;9.032;2023-09-19T02:25:28;14.50;99.90
13470;DHT22;6807;48.682;9.032;2023-09-19T02:31:01;14.40;99.90
13470;DHT22;6807;48.682;9.032;2023-09-19T02:43:56;12.70;1.00
13470;DHT22;6807;48.682;9.032;2023-09-19T02:50:16;14.20;1.00
13470;DHT22;6807;48.682;9.032;2023-09-19T03:16:53;14.80;1.00
13470;DHT22;6807;48.682;9.032;2023-09-19T03:19:20;14.90;39.40
13470;DHT22;6807;48.682;9.032;2023-09-19T03:21:49;14.50;73.10
13470;DHT22;6807;48.682;9.032;2023-09-19T03:24:16;14.80;97.40
13470;DHT22;6807;48.682;9.032;2023-09-19T03:29:11;14.80;54.00
13470;DHT22;6807;48.682;9.032;2023-09-19T03:31:39;14.80;1.00
13470;DHT22;6807;48.682;9.032;2023-09-19T03:34:08;14.80;42.50
13470;DHT22;6807;48.682;9.032;2023-09-19T03:36:35;15.00;30.50
13470;DHT22;6807;48.682;9.032;2023-09-19T03:39:02;14.80;1.00
13470;DHT22;6807;48.682;9.032;2023-09-19T03:41:30;14.80;22.20
13470;DHT22;6807;48.682;9.032;2023-09-19T03:43:58;14.90;39.30
13470;DHT22;6807;48.682;9.032;2023-09-19T03:46:25;14.90;76.70
13470;DHT22;6807;48.682;9.032;2023-09-19T03:48:52;14.90;28.90
13470;DHT22;6807;48.682;9.032;2023-09-19T03:51:21;14.90;96.20
13470;DHT22;6807;48.682;9.032;2023-09-19T03:53:48;14.80;65.40
13470;DHT22;6807;48.682;9.032;2023-09-19T03:56:15;14.80;99.90
13470;DHT22;6807;48.682;9.032;2023-09-19T03:58:43;14.80;99.90
13470;DHT22;6807;48.682;9.032;2023-09-19T04:01:10;14.80;99.90
13470;DHT22;6807;48.682;9.032;2023-09-19T04:03:38;14.70;99.90
13470;DHT22;6807;48.682;9.032;2023-09-19T04:06:13;14.70;99.90
13470;DHT22;6807;48.682;9.032;2023-09-19T04:08:41;14.60;99.90
13470;DHT22;6807;48.682;9.032;2023-09-19T04:11:09;14.70;99.90
13470;DHT22;6807;48.682;9.032;2023-09-19T04:16:03;14.70;99.90
13470;DHT22;6807;48.682;9.032;2023-09-19T04:18:32;14.70;99.90
13470;DHT22;6807;48.682;9.032;2023-09-19T04:21:02;14.70;99.90
13470;DHT22;6807;48.682;9.032;2023-09-19T04:23:31;14.70;99.80
13470;DHT22;6807;48.682;9.032;2023-09-19T04:25:59;14.70;92.50
13470;DHT22;6807;48.682;9.032;2023-09-19T04:28:26;14.70;57.60
13470;DHT22;6807;48.682;9.032;2023-09-19T04:30:54;14.80;38.50
13470;DHT22;6807;48.682;9.032;2023-09-19T04:33:21;14.80;1.00
13470;DHT22;6807;48.682;9.032;2023-09-19T04:35:49;14.80;21.10
13470;DHT22;6807;48.682;9.032;2023-09-19T04:38:16;14.80;99.90
13470;DHT22;6807;48.682;9.032;2023-09-19T04:40:43;14.80;85.50
13470;DHT22;6807;48.682;9.032;2023-09-19T04:43:11;14.80;1.00
13470;DHT22;6807;48.682;9.032;2023-09-19T04:45:39;14.80;1.00
13470;DHT22;6807;48.682;9.032;2023-09-19T04:48:06;14.90;1.00
13470;DHT22;6807;48.682;9.032;2023-09-19T04:50:34;14.90;1.00
13470;DHT22;6807;48.682;9.032;2023-09-19T04:53:03;14.90;3.70
13470;DHT22;6807;48.682;9.032;2023-09-19T04:55:30;15.00;1.00
13470;DHT22;6807;48.682;9.032;2023-09-19T04:57:58;15.00;1.00
13470;DHT22;6807;48.682;9.032;2023-09-19T05:00:27;15.00;11.40
13470;DHT22;6807;48.682;9.032;2023-09-19T05:02:57;15.00;99.90
13470;DHT22;6807;48.682;9.032;2023-09-19T05:05:24;15.00;99.90
13470;DHT22;6807;48.682;9.032;2023-09-19T05:07:52;15.00;99.90
13470;DHT22;6807;48.682;9.032;2023-09-19T05:10:20;14.90;99.90
13470;DHT22;6807;48.682;9.032;2023-09-19T05:12:47;14.90;99.90
13470;DHT22;6807;48.682;9.032;2023-09-19T05:15:17;14.80;99.90
13470;DHT22;6807;48.682;9.032;2023-09-19T05:17:49;14.70;99.90
13470;DHT22;6807;48.682;9.032;2023-09-19T05:20:17;14.80;99.90
13470;DHT22;6807;48.682;9.032;2023-09-19T05:22:55;16.20;5.40
13470;DHT22;6807;48.682;9.032;2023-09-19T05:25:23;12.20;1.00
13470;DHT22;6807;48.682;9.032;2023-09-19T05:27:53;14.70;1.00
13470;DHT22;6807;48.682;9.032;2023-09-19T05:32:49;14.70;99.90
13470;DHT22;6807;48.682;9.032;2023-09-19T05:35:16;14.70;99.90
13470;DHT22;6807;48.682;9.032;2023-09-19T05:37:43;14.70;1.00
13470;DHT22;6807;48.682;9.032;2023-09-19T05:40:11;14.70;99.90
13470;DHT22;6807;48.682;9.032;2023-09-19T05:45:07;15.30;99.90
13470;DHT22;6807;48.682;9.032;2023-09-19T05:47:37;14.90;99.90
13470;DHT22;6807;48.682;9.032;2023-09-19T05:50:08;14.90;99.90
13470;DHT22;6807;48.682;9.032;2023-09-19T05:52:35;14.90;99.90
13470;DHT22;6807;48.682;9.032;2023-09-19T05:55:03;14.90;1.00
13470;DHT22;6807;48.682;9.032;2023-09-19T05:57:32;15.00;99.90
13470;DHT22;6807;48.682;9.032;2023-09-19T06:02:26;15.10;1.00
13470;DHT22;6807;48.682;9.032;2023-09-19T06:04:55;15.10;1.00
13470;DHT22;6807;48.682;9.032;2023-09-19T06:07:23;15.10;1.00
13470;DHT22;6807;48.682;9.032;2023-09-19T06:09:51;15.10;1.00
13470;DHT22;6807;48.682;9.032;2023-09-19T06:12:19;15.00;1.00
13470;DHT22;6807;48.682;9.032;2023-09-19T06:14:46;13.10;99.90
13470;DHT22;6807;48.682;9.032;2023-09-19T06:19:41;14.80;99.90
13470;DHT22;6807;48.682;9.032;2023-09-19T06:22:15;14.70;1.00
13470;DHT22;6807;48.682;9.032;2023-09-19T06:24:43;14.60;99.90
13470;DHT22;6807;48.682;9.032;2023-09-19T06:27:10;14.50;99.90
13470;DHT22;6807;48.682;9.032;2023-09-19T06:29:37;14.50;99.90
13470;DHT22;6807;48.682;9.032;2023-09-19T06:32:07;14.60;99.90
13470;DHT22;6807;48.682;9.032;2023-09-19T06:34:35;14.70;99.90
13470;DHT22;6807;48.682;9.032;2023-09-19T06:37:06;14.80;99.90
13470;DHT22;6807;48.682;9.032;2023-09-19T06:39:34;15.00;99.90
13470;DHT22;6807;48.682;9.032;2023-09-19T06:42:02;15.20;99.90
13470;DHT22;6807;48.682;9.032;2023-09-19T06:44:30;15.50;99.90
13470;DHT22;6807;48.682;9.032;2023-09-19T06:46:58;15.70;1.00
13470;DHT22;6807;48.682;9.032;2023-09-19T06:49:25;16.20;42.70
13470;DHT22;6807;48.682;9.032;2023-09-19T06:51:54;16.60;1.00
13470;DHT22;6807;48.682;9.032;2023-09-19T06:54:23;16.60;1.00
13470;DHT22;6807;48.682;9.032;2023-09-19T06:56:50;16.80;99.90
13470;DHT22;6807;48.682;9.032;2023-09-19T06:59:18;16.90;99.90
13470;DHT22;6807;48.682;9.032;2023-09-19T07:01:45;16.90;38.50
13470;DHT22;6807;48.682;9.032;2023-09-19T07:04:12;16.80;32.50
13470;DHT22;6807;48.682;9.032;2023-09-19T07:06:40;16.70;93.90
13470;DHT22;6807;48.682;9.032;2023-09-19T07:11:48;17.10;99.90
13470;DHT22;6807;48.682;9.032;2023-09-19T07:14:18;17.30;99.90
13470;DHT22;6807;48.682;9.032;2023-09-19T07:16:45;17.50;1.00
13470;DHT22;6807;48.682;9.032;2023-09-19T07:19:13;17.50;81.70
13470;DHT22;6807;48.682;9.032;2023-09-19T07:21:40;17.30;99.90
13470;DHT22;6807;48.682;9.032;2023-09-19T07:24:07;17.20;91.90
13470;DHT22;6807;48.682;9.032;2023-09-19T07:26:34;17.70;1.00
13470;DHT22;6807;48.682;9.032;2023-09-19T07:29:01;17.70;1.00
13470;DHT22;6807;48.682;9.032;2023-09-19T07:31:30;18.10;1.00
13470;DHT22;6807;48.682;9.032;2023-09-19T07:33:57;18.10;1.00
13470;DHT22;6807;48.682;9.032;2023-09-19T07:36:27;18.30;99.90
13470;DHT22;6807;48.682;9.032;2023-09-19T07:41:23;18.80;99.90
13470;DHT22;6807;48.682;9.032;2023-09-19T07:43:51;18.80;1.00
13470;DHT22;6807;48.682;9.032;2023-09-19T07:46:18;18.90;99.90
13470;DHT22;6807;48.682;9.032;2023-09-19T07:48:47;19.00;1.00
13470;DHT22;6807;48.682;9.032;2023-09-19T07:51:14;18.80;1.00
13470;DHT22;6807;48.682;9.032;2023-09-19T07:53:42;18.70;1.00
13470;DHT22;6807;48.682;9.032;2023-09-19T07:56:10;19.00;1.00
13470;DHT22;6807;48.682;9.032;2023-09-19T07:58:39;20.20;99.90
13470;DHT22;6807;48.682;9.032;2023-09-19T08:01:10;20.20;99.90
13470;DHT22;6807;48.682;9.032;2023-09-19T08:03:52;20.80;99.90
13470;DHT22;6807;48.682;9.032;2023-09-19T08:06:19;21.80;99.90
13470;DHT22;6807;48.682;9.032;2023-09-19T08:08:46;21.70;99.90
13470;DHT22;6807;48.682;9.032;2023-09-19T08:11:15;21.90;99.90
13470;DHT22;6807;48.682;9.032;2023-09-19T08:13:47;22.10;99.90
13470;DHT22;6807;48.682;9.032;2023-09-19T08:16:15;21.90;99.90
13470;DHT22;6807;48.682;9.032;2023-09-19T08:18:47;21.90;99.90
13470;DHT22;6807;48.682;9.032;2023-09-19T08:21:15;21.80;99.90
13470;DHT22;6807;48.682;9.032;2023-09-19T08:23:42;21.80;99.90
13470;DHT22;6807;48.682;9.032;2023-09-19T08:35:56;18.80;99.90
13470;DHT22;6807;48.682;9.032;2023-09-19T08:38:24;18.70;1.00
13470;DHT22;6807;48.682;9.032;2023-09-19T08:40:54;19.20;99.90
13470;DHT22;6807;48.682;9.032;2023-09-19T08:43:22;19.40;99.90
13470;DHT22;6807;48.682;9.032;2023-09-19T08:45:49;20.30;1.00
13470;DHT22;6807;48.682;9.032;2023-09-19T08:48:23;20.80;1.00
13470;DHT22;6807;48.682;9.032;2023-09-19T08:50:54;22.60;99.90
13470;DHT22;6807;48.682;9.032;2023-09-19T08:53:33;22.60;99.90
13470;DHT22;6807;48.682;9.032;2023-09-19T08:56:03;23.40;99.90
13470;DHT22;6807;48.682;9.032;2023-09-19T08:59:02;24.20;1.00
13470;DHT22;6807;48.682;9.032;2023-09-19T09:01:29;23.90;99.90
13470;DHT22;6807;48.682;9.032;2023-09-19T09:03:58;24.20;99.90
13470;DHT22;6807;48.682;9.032;2023-09-19T09:06:26;24.50;99.90
13470;DHT22;6807;48.682;9.032;2023-09-19T09:08:55;25.00;99.90
13470;DHT22;6807;48.682;9.032;2023-09-19T09:13:50;24.00;99.90
13470;DHT22;6807;48.682;9.032;2023-09-19T09:19:07;24.90;99.90
13470;DHT22;6807;48.682;9.032;2023-09-19T09:22:09;24.50;99.90
13470;DHT22;6807;48.682;9.032;2023-09-19T09:25:00;23.00;1.00
13470;DHT22;6807;48.682;9.032;2023-09-19T10:22:57;24.90;1.00
13470;DHT22;6807;48.682;9.032;2023-09-19T10:25:26;25.80;99.90
13470;DHT22;6807;48.682;9.032;2023-09-19T10:27:54;25.30;99.90
13470;DHT22;6807;48.682;9.032;2023-09-19T10:33:24;24.20;99.90
13470;DHT22;6807;48.682;9.032;2023-09-19T10:35:53;24.70;99.90
13470;DHT22;6807;48.682;9.032;2023-09-19T10:38:24;26.30;99.90
13470;DHT22;6807;48.682;9.032;2023-09-19T10:40:55;27.10;99.90
13470;DHT22;6807;48.682;9.032;2023-09-19T10:43:29;26.90;1.00
13470;DHT22;6807;48.682;9.032;2023-09-19T10:46:05;27.80;1.00
13470;DHT22;6807;48.682;9.032;2023-09-19T10:48:52;27.40;1.60
13470;DHT22;6807;48.682;9.032;2023-09-19T10:51:30;27.50;8.60
13470;DHT22;6807;48.682;9.032;2023-09-19T10:54:10;28.40;1.00
13470;DHT22;6807;48.682;9.032;2023-09-19T10:56:42;27.60;1.00
13470;DHT22;6807;48.682;9.032;2023-09-19T10:59:13;27.80;1.00
13470;DHT22;6807;48.682;9.032;2023-09-19T11:01:43;26.30;1.00
13470;DHT22;6807;48.682;9.032;2023-09-19T11:04:23;25.90;1.00
13470;DHT22;6807;48.682;9.032;2023-09-19T11:07:05;26.60;1.00
13470;DHT22;6807;48.682;9.032;2023-09-19T11:09:50;26.30;1.00
13470;DHT22;6807;48.682;9.032;2023-09-19T11:12:50;25.90;1.00
13470;DHT22;6807;48.682;9.032;2023-09-19T11:18:52;27.00;99.90
13470;DHT22;6807;48.682;9.032;2023-09-19T11:21:53;26.70;1.00
13470;DHT22;6807;48.682;9.032;2023-09-19T11:24:31;26.50;1.00
13470;DHT22;6807;48.682;9.032;2023-09-19T11:27:16;25.40;1.00
13470;DHT22;6807;48.682;9.032;2023-09-19T11:29:44;25.40;1.00
13470;DHT22;6807;48.682;9.032;2023-09-19T11:32:12;25.20;1.00
13470;DHT22;6807;48.682;9.032;2023-09-19T11:34:47;25.80;1.00
13470;DHT22;6807;48.682;9.032;2023-09-19T11:40:44;29.00;1.00
13470;DHT22;6807;48.682;9.032;2023-09-19T11:43:31;29.60;1.00
13470;DHT22;6807;48.682;9.032;2023-09-19T11:46:06;30.00;99.90
13470;DHT22;6807;48.682;9.032;2023-09-19T11:48:41;30.10;1.00
13470;DHT22;6807;48.682;9.032;2023-09-19T11:51:17;30.00;99.90
13470;DHT22;6807;48.682;9.032;2023-09-19T11:53:58;28.10;99.90
13470;DHT22;6807;48.682;9.032;2023-09-19T11:56:26;24.10;99.90
13470;DHT22;6807;48.682;9.032;2023-09-19T11:58:56;25.30;99.90
13470;DHT22;6807;48.682;9.032;2023-09-19T12:01:25;25.30;99.90
13470;DHT22;6807;48.682;9.032;2023-09-19T12:03:57;26.90;99.90
13470;DHT22;6807;48.682;9.032;2023-09-19T12:06:28;28.00;99.90
13470;DHT22;6807;48.682;9.032;2023-09-19T12:08:57;26.60;99.90
13470;DHT22;6807;48.682;9.032;2023-09-19T12:11:28;27.70;99.90
13470;DHT22;6807;48.682;9.032;2023-09-19T12:14:00;27.70;99.90
13470;DHT22;6807;48.682;9.032;2023-09-19T12:16:27;28.30;99.90
13470;DHT22;6807;48.682;9.032;2023-09-19T12:18:56;29.60;99.90
13470;DHT22;6807;48.682;9.032;2023-09-19T12:21:30;30.10;99.90
13470;DHT22;6807;48.682;9.032;2023-09-19T12:24:07;30.10;99.90
13470;DHT22;6807;48.682;9.032;2023-09-19T12:26:40;29.50;99.90
13470;DHT22;6807;48.682;9.032;2023-09-19T12:29:15;29.60;99.90
13470;DHT22;6807;48.682;9.032;2023-09-19T12:31:54;29.90;99.90
13470;DHT22;6807;48.682;9.032;2023-09-19T12:34:24;29.80;99.90
13470;DHT22;6807;48.682;9.032;2023-09-19T12:37:12;29.90;99.90
13470;DHT22;6807;48.682;9.032;2023-09-19T12:39:43;30.00;99.90
13470;DHT22;6807;48.682;9.032;2023-09-19T12:42:14;30.10;99.90
13470;DHT22;6807;48.682;9.032;2023-09-19T12:44:44;30.80;99.90
13470;DHT22;6807;48.682;9.032;2023-09-19T12:47:13;30.70;99.90
13470;DHT22;6807;48.682;9.032;2023-09-19T12:50:11;30.70;99.90
13470;DHT22;6807;48.682;9.032;2023-09-19T12:52:44;30.80;99.90
13470;DHT22;6807;48.682;9.032;2023-09-19T12:55:23;30.80;99.90
13470;DHT22;6807;48.682;9.032;2023-09-19T12:57:58;30.90;99.90
13470;DHT22;6807;48.682;9.032;2023-09-19T13:00:37;30.70;99.90
13470;DHT22;6807;48.682;9.032;2023-09-19T13:03:18;30.90;99.90
13470;DHT22;6807;48.682;9.032;2023-09-19T13:05:52;29.60;99.90
13470;DHT22;6807;48.682;9.032;2023-09-19T13:08:25;30.00;99.90
13470;DHT22;6807;48.682;9.032;2023-09-19T13:11:05;29.80;99.90
13470;DHT22;6807;48.682;9.032;2023-09-19T13:13:32;30.10;99.90
13470;DHT22;6807;48.682;9.032;2023-09-19T13:16:03;30.80;99.90
13470;DHT22;6807;48.682;9.032;2023-09-19T13:18:42;30.80;99.90
13470;DHT22;6807;48.682;9.032;2023-09-19T13:21:11;30.70;99.90
13470;DHT22;6807;48.682;9.032;2023-09-19T13:23:42;30.90;99.90
13470;DHT22;6807;48.682;9.032;2023-09-19T13:26:09;30.50;99.90
13470;DHT22;6807;48.682;9.032;2023-09-19T13:28:37;30.40;99.90
13470;DHT22;6807;48.682;9.032;2023-09-19T13:31:06;30.40;99.90
13470;DHT22;6807;48.682;9.032;2023-09-19T13:33:33;30.60;99.90
13470;DHT22;6807;48.682;9.032;2023-09-19T13:36:01;30.90;99.90
13470;DHT22;6807;48.682;9.032;2023-09-19T13:38:28;30.50;99.90
13470;DHT22;6807;48.682;9.032;2023-09-19T13:40:55;30.30;99.90
13470;DHT22;6807;48.682;9.032;2023-09-19T13:43:22;30.50;99.90
13470;DHT22;6807;48.682;9.032;2023-09-19T13:45:50;30.70;99.90
13470;DHT22;6807;48.682;9.032;2023-09-19T13:48:19;30.20;99.90
13470;DHT22;6807;48.682;9.032;2023-09-19T13:50:48;29.90;99.90
13470;DHT22;6807;48.682;9.032;2023-09-19T13:53:15;29.20;99.90
13470;DHT22;6807;48.682;9.032;2023-09-19T13:55:43;29.30;99.90
13470;DHT22;6807;48.682;9.032;2023-09-19T13:58:10;29.20;99.90
13470;DHT22;6807;48.682;9.032;2023-09-19T14:00:38;29.20;99.90
13470;DHT22;6807;48.682;9.032;2023-09-19T14:03:05;30.10;99.90
13470;DHT22;6807;48.682;9.032;2023-09-19T14:05:33;30.10;99.90
13470;DHT22;6807;48.682;9.032;2023-09-19T14:08:00;30.50;99.90
13470;DHT22;6807;48.682;9.032;2023-09-19T14:10:29;30.20;99.90
13470;DHT22;6807;48.682;9.032;2023-09-19T14:12:57;29.90;99.90
13470;DHT22;6807;48.682;9.032;2023-09-19T14:15:25;29.50;99.90
13470;DHT22;6807;48.682;9.032;2023-09-19T14:17:56;29.40;99.90
13470;DHT22;6807;48.682;9.032;2023-09-19T14:20:23;28.80;99.90
13470;DHT22;6807;48.682;9.032;2023-09-19T14:22:51;28.80;99.90
13470;DHT22;6807;48.682;9.032;2023-09-19T14:25:18;28.20;99.90
13470;DHT22;6807;48.682;9.032;2023-09-19T14:27:46;28.20;99.90
13470;DHT22;6807;48.682;9.032;2023-09-19T14:30:13;27.90;99.90
13470;DHT22;6807;48.682;9.032;2023-09-19T14:32:40;28.30;99.90
13470;DHT22;6807;48.682;9.032;2023-09-19T14:35:07;28.60;99.90
13470;DHT22;6807;48.682;9.032;2023-09-19T14:37:36;28.50;99.90
13470;DHT22;6807;48.682;9.032;2023-09-19T14:40:06;28.40;99.90
13470;DHT22;6807;48.682;9.032;2023-09-19T14:42:35;28.30;99.90
13470;DHT22;6807;48.682;9.032;2023-09-19T14:45:04;27.60;99.90
13470;DHT22;6807;48.682;9.032;2023-09-19T14:47:32;27.40;99.90
13470;DHT22;6807;48.682;9.032;2023-09-19T14:50:00;26.60;99.90
13470;DHT22;6807;48.682;9.032;2023-09-19T14:52:27;27.10;99.90
13470;DHT22;6807;48.682;9.032;2023-09-19T14:54:55;27.30;99.90
13470;DHT22;6807;48.682;9.032;2023-09-19T14:57:23;27.20;99.90
13470;DHT22;6807;48.682;9.032;2023-09-19T14:59:51;26.70;99.90
13470;DHT22;6807;48.682;9.032;2023-09-19T15:02:18;26.40;99.90
13470;DHT22;6807;48.682;9.032;2023-09-19T15:04:46;25.80;99.90
13470;DHT22;6807;48.682;9.032;2023-09-19T15:07:14;26.00;99.90
13470;DHT22;6807;48.682;9.032;2023-09-19T15:09:41;26.10;99.90
13470;DHT22;6807;48.682;9.032;2023-09-19T15:12:09;26.00;99.90
13470;DHT22;6807;48.682;9.032;2023-09-19T15:14:41;26.60;99.90
13470;DHT22;6807;48.682;9.032;2023-09-19T15:17:08;26.80;99.90
13470;DHT22;6807;48.682;9.032;2023-09-19T15:19:35;26.80;99.90
13470;DHT22;6807;48.682;9.032;2023-09-19T15:22:04;26.60;99.90
13470;DHT22;6807;48.682;9.032;2023-09-19T15:24:31;25.90;99.90
13470;DHT22;6807;48.682;9.032;2023-09-19T15:26:58;25.40;99.90
13470;DHT22;6807;48.682;9.032;2023-09-19T15:29:25;25.30;99.90
13470;DHT22;6807;48.682;9.032;2023-09-19T15:31:55;25.00;99.90
13470;DHT22;6807;48.682;9.032;2023-09-19T15:34:24;24.50;99.90
13470;DHT22;6807;48.682;9.032;2023-09-19T15:36:51;24.60;99.90
13470;DHT22;6807;48.682;9.032;2023-09-19T15:39:18;24.70;99.90
13470;DHT22;6807;48.682;9.032;2023-09-19T15:41:48;24.80;99.90
13470;DHT22;6807;48.682;9.032;2023-09-19T15:44:18;24.40;99.90
13470;DHT22;6807;48.682;9.032;2023-09-19T15:46:45;24.20;99.90
13470;DHT22;6807;48.682;9.032;2023-09-19T15:49:14;23.90;99.90
13470;DHT22;6807;48.682;9.032;2023-09-19T15:51:41;24.00;99.90
13470;DHT22;6807;48.682;9.032;2023-09-19T15:54:11;23.90;99.90
13470;DHT22;6807;48.682;9.032;2023-09-19T15:56:39;24.00;99.90
13470;DHT22;6807;48.682;9.032;2023-09-19T15:59:07;23.70;99.90
13470;DHT22;6807;48.682;9.032;2023-09-19T16:01:36;23.20;99.90
13470;DHT22;6807;48.682;9.032;2023-09-19T16:04:04;22.80;95.70
13470;DHT22;6807;48.682;9.032;2023-09-19T16:06:36;22.60;99.90
13470;DHT22;6807;48.682;9.032;2023-09-19T16:09:04;22.50;99.90
13470;DHT22;6807;48.682;9.032;2023-09-19T16:11:33;22.00;96.20
13470;DHT22;6807;48.682;9.032;2023-09-19T16:14:04;21.90;99.90
13470;DHT22;6807;48.682;9.032;2023-09-19T16:19:02;21.70;56.00
13470;DHT22;6807;48.682;9.032;2023-09-19T16:22:06;21.70;99.90
13470;DHT22;6807;48.682;9.032;2023-09-19T16:24:34;21.70;68.50
13470;DHT22;6807;48.682;9.032;2023-09-19T16:27:01;21.50;80.10
13470;DHT22;6807;48.682;9.032;2023-09-19T16:29:28;21.30;99.90
13470;DHT22;6807;48.682;9.032;2023-09-19T16:31:55;21.30;94.30
13470;DHT22;6807;48.682;9.032;2023-09-19T16:36:49;20.90;97.60
13470;DHT22;6807;48.682;9.032;2023-09-19T16:39:18;20.60;72.30
13470;DHT22;6807;48.682;9.032;2023-09-19T16:46:40;20.20;37.60
13470;DHT22;6807;48.682;9.032;2023-09-19T16:49:07;20.00;42.50
13470;DHT22;6807;48.682;9.032;2023-09-19T16:51:34;19.90;44.00
13470;DHT22;6807;48.682;9.032;2023-09-19T16:54:03;19.70;31.90
13470;DHT22;6807;48.682;9.032;2023-09-19T16:56:31;19.70;36.80
13470;DHT22;6807;48.682;9.032;2023-09-19T17:03:54;19.60;99.90
13470;DHT22;6807;48.682;9.032;2023-09-19T17:06:22;19.50;99.90
13470;DHT22;6807;48.682;9.032;2023-09-19T17:08:50;19.40;99.90
13470;DHT22;6807;48.682;9.032;2023-09-19T17:13:50;19.20;99.90
13470;DHT22;6807;48.682;9.032;2023-09-19T17:16:18;19.10;99.90
13470;DHT22;6807;48.682;9.032;2023-09-19T17:18:50;19.00;99.90
13470;DHT22;6807;48.682;9.032;2023-09-19T17:21:18;18.90;99.90
13470;DHT22;6807;48.682;9.032;2023-09-19T17:23:46;18.70;99.90
13470;DHT22;6807;48.682;9.032;2023-09-19T17:26:14;18.60;99.90
13470;DHT22;6807;48.682;9.032;2023-09-19T17:28:44;18.50;99.90
13470;DHT22;6807;48.682;9.032;2023-09-19T17:31:14;18.40;99.90
13470;DHT22;6807;48.682;9.032;2023-09-19T17:33:42;18.20;99.90
13470;DHT22;6807;48.682;9.032;2023-09-19T17:36:12;18.10;99.90
13470;DHT22;6807;48.682;9.032;2023-09-19T17:38:43;18.00;99.90
13470;DHT22;6807;48.682;9.032;2023-09-19T17:41:11;18.80;99.90
13470;DHT22;6807;48.682;9.032;2023-09-19T17:43:41;17.80;99.90
13470;DHT22;6807;48.682;9.032;2023-09-19T17:46:11;17.60;99.90
13470;DHT22;6807;48.682;9.032;2023-09-19T17:48:41;17.50;99.90
13470;DHT22;6807;48.682;9.032;2023-09-19T17:51:09;17.40;99.90
13470;DHT22;6807;48.682;9.032;2023-09-19T17:53:36;17.30;99.90
13470;DHT22;6807;48.682;9.032;2023-09-19T17:56:04;17.30;99.90
13470;DHT22;6807;48.682;9.032;2023-09-19T17:58:32;17.20;99.90
13470;DHT22;6807;48.682;9.032;2023-09-19T18:01:07;17.10;99.90
13470;DHT22;6807;48.682;9.032;2023-09-19T18:03:35;17.00;99.90
13470;DHT22;6807;48.682;9.032;2023-09-19T18:06:04;17.00;99.90
13470;DHT22;6807;48.682;9.032;2023-09-19T18:08:40;16.90;99.90
13470;DHT22;6807;48.682;9.032;2023-09-19T18:11:12;16.80;99.90
13470;DHT22;6807;48.682;9.032;2023-09-19T18:13:41;16.60;99.90
13470;DHT22;6807;48.682;9.032;2023-09-19T18:16:10;16.60;99.90
13470;DHT22;6807;48.682;9.032;2023-09-19T18:18:37;16.60;99.90
13470;DHT22;6807;48.682;9.032;2023-09-19T18:21:05;16.50;99.90
13470;DHT22;6807;48.682;9.032;2023-09-19T18:23:32;16.30;99.90
13470;DHT22;6807;48.682;9.032;2023-09-19T18:26:00;16.30;99.90
13470;DHT22;6807;48.682;9.032;2023-09-19T18:28:27;16.20;1.00
13470;DHT22;6807;48.682;9.032;2023-09-19T18:30:55;16.10;1.00
13470;DHT22;6807;48.682;9.032;2023-09-19T18:33:22;16.00;1.00
13470;DHT22;6807;48.682;9.032;2023-09-19T18:35:52;16.00;1.00
13470;DHT22;6807;48.682;9.032;2023-09-19T18:38:21;15.90;15.30
13470;DHT22;6807;48.682;9.032;2023-09-19T18:40:48;15.80;1.00
13470;DHT22;6807;48.682;9.032;2023-09-19T18:43:16;15.70;99.90
13470;DHT22;6807;48.682;9.032;2023-09-19T18:45:43;15.70;99.90
13470;DHT22;6807;48.682;9.032;2023-09-19T18:48:10;15.60;99.90
13470;DHT22;6807;48.682;9.032;2023-09-19T18:53:06;15.50;1.00
13470;DHT22;6807;48.682;9.032;2023-09-19T18:55:35;15.40;1.00
13470;DHT22;6807;48.682;9.032;2023-09-19T18:58:01;15.40;99.90
13470;DHT22;6807;48.682;9.032;2023-09-19T19:00:29;15.30;1.00
13470;DHT22;6807;48.682;9.032;2023-09-19T19:02:56;15.20;1.00
13470;DHT22;6807;48.682;9.032;2023-09-19T19:05:23;15.10;1.00
13470;DHT22;6807;48.682;9.032;2023-09-19T19:07:50;15.00;1.00
13470;DHT22;6807;48.682;9.032;2023-09-19T19:10:17;14.90;99.30
13470;DHT22;6807;48.682;9.032;2023-09-19T19:12:46;14.90;99.90
13470;DHT22;6807;48.682;9.032;2023-09-19T19:15:13;14.80;1.00
13470;DHT22;6807;48.682;9.032;2023-09-19T19:17:41;14.70;99.90
13470;DHT22;6807;48.682;9.032;2023-09-19T19:20:09;14.60;99.90
13470;DHT22;6807;48.682;9.032;2023-09-19T19:25:06;14.50;99.90
13470;DHT22;6807;48.682;9.032;2023-09-19T19:27:35;14.50;99.90
13470;DHT22;6807;48.682;9.032;2023-09-19T19:30:05;14.50;1.00
13470;DHT22;6807;48.682;9.032;2023-09-19T19:32:33;14.50;1.00